Time;durP1;ratioP1;P1;durP2;ratioP2;P2;SDS_P1;SDS_P2;PMS_P1;PMS_P2;Temp;Humidity;BMP_temperature;BMP_pressure;BME280_temperature;BME280_humidity;BME280_pressure;Samples;Min_cycle;Max_cycle;Signal;HPM_P1;HPM_P2
2021/05/31 00:02:13;;;;;;;3.75;2.30;;;13.90;99.90;;;;;;5034378;28;20041;-70
2021/05/31 00:04:39;;;;;;;4.32;2.17;;;13.90;99.90;;;;;;5034592;28;20029;-70
2021/05/31 00:07:13;;;;;;;4.90;2.35;;;13.90;99.90;;;;;;5034939;28;20164;-70
2021/05/31 00:09:42;;;;;;;7.18;2.70;;;13.50;99.90;;;;;;5034568;28;20029;-70
2021/05/31 00:12:12;;;;;;;4.85;2.42;;;13.20;99.90;;;;;;5034515;28;20030;-70
2021/05/31 00:14:38;;;;;;;5.75;3.08;;;13.30;99.90;;;;;;5033624;28;20045;-70
2021/05/31 00:17:04;;;;;;;5.43;3.03;;;13.30;99.90;;;;;;5034774;28;20026;-70
2021/05/31 00:19:31;;;;;;;5.18;2.63;;;13.10;99.90;;;;;;5033316;28;20034;-70
2021/05/31 00:21:56;;;;;;;6.00;2.47;;;13.10;99.90;;;;;;5034699;28;20022;-70
2021/05/31 00:24:23;;;;;;;5.85;2.47;;;13.10;99.90;;;;;;5034590;28;20049;-71
2021/05/31 00:26:49;;;;;;;4.68;2.50;;;13.30;99.90;;;;;;5034263;28;20112;-71
2021/05/31 00:29:16;;;;;;;5.03;3.00;;;13.30;99.90;;;;;;5032745;28;20050;-70
2021/05/31 00:31:42;;;;;;;5.25;2.40;;;13.30;99.90;;;;;;5034026;28;20026;-70
2021/05/31 00:34:08;;;;;;;4.82;2.63;;;13.30;99.90;;;;;;5034392;28;20060;-70
2021/05/31 00:36:34;;;;;;;4.80;2.65;;;13.20;99.90;;;;;;5034296;28;20461;-70
2021/05/31 00:39:00;;;;;;;6.75;2.97;;;13.10;99.90;;;;;;5034046;28;20464;-70
2021/05/31 00:41:26;;;;;;;4.85;2.50;;;13.00;99.90;;;;;;5032652;28;20040;-70
2021/05/31 00:43:51;;;;;;;8.23;2.53;;;13.00;99.90;;;;;;5033920;28;20033;-70
2021/05/31 00:46:17;;;;;;;5.90;2.47;;;13.00;99.90;;;;;;5032608;28;20032;-70
2021/05/31 00:48:43;;;;;;;6.90;2.88;;;13.00;99.90;;;;;;5032852;28;20037;-70
2021/05/31 00:51:12;;;;;;;3.75;2.35;;;13.10;99.90;;;;;;5033923;28;20056;-70
2021/05/31 00:53:39;;;;;;;7.03;2.40;;;13.00;99.90;;;;;;5032533;28;20083;-70
2021/05/31 00:56:05;;;;;;;5.55;2.75;;;13.00;99.90;;;;;;5032547;28;20083;-70
2021/05/31 00:58:32;;;;;;;4.40;2.40;;;12.90;99.90;;;;;;5032303;28;20066;-71
2021/05/31 01:01:00;;;;;;;5.63;2.45;;;12.80;99.90;;;;;;5033475;28;20100;-71
2021/05/31 01:03:27;;;;;;;4.47;2.60;;;13.00;99.90;;;;;;5031688;28;20037;-70
2021/05/31 01:05:56;;;;;;;6.38;2.55;;;13.00;99.90;;;;;;5033741;28;20095;-71
2021/05/31 01:08:29;;;;;;;5.05;2.40;;;12.80;99.90;;;;;;5032130;28;20038;-70
2021/05/31 01:11:44;;;;;;;6.35;2.42;;;12.80;99.90;;;;;;5033435;28;20060;-71
2021/05/31 01:14:32;;;;;;;9.07;2.60;;;13.00;99.90;;;;;;5023754;28;20133;-71
2021/05/31 01:17:15;;;;;;;8.80;2.90;;;13.00;99.90;;;;;;5032186;28;20033;-68
2021/05/31 01:19:53;;;;;;;7.03;2.38;;;13.00;99.90;;;;;;5032105;28;20044;-71
2021/05/31 01:22:22;;;;;;;5.32;2.55;;;13.10;99.90;;;;;;5033202;28;20651;-70
2021/05/31 01:24:51;;;;;;;4.80;2.28;;;13.10;99.90;;;;;;5032002;28;20041;-71
2021/05/31 01:27:20;;;;;;;4.10;2.30;;;13.10;99.90;;;;;;5032942;28;20439;-71
2021/05/31 01:29:55;;;;;;;3.67;2.20;;;13.10;99.90;;;;;;5033299;28;20497;-71
2021/05/31 01:32:25;;;;;;;6.35;2.35;;;13.30;99.90;;;;;;5031630;28;20061;-71
2021/05/31 01:34:53;;;;;;;5.70;2.65;;;13.30;99.90;;;;;;5032086;28;20041;-71
2021/05/31 01:37:23;;;;;;;4.20;2.33;;;13.20;99.90;;;;;;5015482;28;20040;-71
2021/05/31 01:39:55;;;;;;;5.82;2.20;;;13.00;99.90;;;;;;5032876;28;20428;-71
2021/05/31 01:42:21;;;;;;;;;;;12.80;99.90;;;;;;5032005;28;20033;-72
2021/05/31 01:44:49;;;;;;;5.68;2.30;;;12.70;99.90;;;;;;5048080;28;19913;-71
2021/05/31 01:47:15;;;;;;;6.53;2.53;;;12.60;99.90;;;;;;5031579;28;20033;-71
2021/05/31 01:49:44;;;;;;;6.07;2.55;;;12.60;99.90;;;;;;5031366;28;20056;-71
2021/05/31 01:52:12;;;;;;;7.90;2.55;;;12.60;99.90;;;;;;5031805;28;20033;-71
2021/05/31 01:54:39;;;;;;;4.63;2.33;;;12.70;99.90;;;;;;5031231;28;20038;-71
2021/05/31 01:57:08;;;;;;;6.15;2.55;;;12.60;99.90;;;;;;5031252;28;20026;-71
2021/05/31 01:59:35;;;;;;;4.90;2.78;;;12.60;99.90;;;;;;5031522;28;20508;-71
2021/05/31 02:02:02;;;;;;;4.05;2.40;;;12.50;99.90;;;;;;5031325;28;20571;-71
2021/05/31 02:04:28;;;;;;;4.13;2.45;;;12.40;99.90;;;;;;5032339;28;20037;-71
2021/05/31 02:06:54;;;;;;;4.65;2.28;;;12.40;99.90;;;;;;5032428;28;20029;-71
2021/05/31 02:09:22;;;;;;;4.22;2.80;;;12.50;99.90;;;;;;5031336;28;20038;-71
2021/05/31 02:11:59;;;;;;;5.72;2.30;;;12.40;99.90;;;;;;5032346;28;20090;-71
2021/05/31 02:14:38;;;;;;;5.22;2.70;;;12.30;99.90;;;;;;5032046;28;20401;-71
2021/05/31 02:17:13;;;;;;;5.30;1.95;;;12.30;99.90;;;;;;5031506;28;20033;-71
2021/05/31 02:19:43;;;;;;;4.47;2.50;;;12.20;99.90;;;;;;5031365;28;20026;-71
2021/05/31 02:22:09;;;;;;;4.60;2.30;;;12.30;99.90;;;;;;5032279;28;20025;-72
2021/05/31 02:24:40;;;;;;;11.07;2.85;;;12.10;99.90;;;;;;5030848;28;20391;-71
2021/05/31 02:27:07;;;;;;;5.60;2.38;;;12.20;99.90;;;;;;5032176;28;20048;-71
2021/05/31 02:29:33;;;;;;;4.10;2.20;;;12.30;99.90;;;;;;5014537;28;20484;-72
2021/05/31 02:31:59;;;;;;;3.92;2.10;;;12.20;99.90;;;;;;5014810;28;20029;-71
2021/05/31 02:34:29;;;;;;;5.13;2.58;;;11.80;99.90;;;;;;5031136;28;20268;-71
2021/05/31 02:36:55;;;;;;;4.88;2.60;;;11.70;99.90;;;;;;5032183;28;20112;-71
2021/05/31 02:39:21;;;;;;;3.83;2.40;;;11.80;99.90;;;;;;5030838;28;20489;-71
2021/05/31 02:41:47;;;;;;;5.82;2.33;;;11.70;99.90;;;;;;5031986;28;20120;-71
2021/05/31 02:44:13;;;;;;;9.13;2.63;;;11.90;99.90;;;;;;5031170;28;20037;-72
2021/05/31 02:46:39;;;;;;;3.60;2.40;;;11.90;99.90;;;;;;5030751;28;20048;-71
2021/05/31 02:49:07;;;;;;;5.50;2.20;;;11.90;99.90;;;;;;5030976;28;20460;-71
2021/05/31 02:51:33;;;;;;;7.18;2.90;;;12.00;99.90;;;;;;5031813;28;20029;-71
2021/05/31 02:53:59;;;;;;;3.60;2.10;;;12.10;99.90;;;;;;5030735;28;20038;-71
2021/05/31 02:56:25;;;;;;;5.45;2.33;;;12.20;99.90;;;;;;5032318;28;20124;-71
2021/05/31 02:58:51;;;;;;;4.55;2.50;;;12.10;99.90;;;;;;5031950;28;20029;-71
2021/05/31 03:01:17;;;;;;;6.07;2.33;;;12.10;99.90;;;;;;5030714;28;20072;-70
2021/05/31 03:03:42;;;;;;;6.03;2.72;;;12.10;99.90;;;;;;5030637;28;20029;-71
2021/05/31 03:06:08;;;;;;;5.97;2.45;;;12.00;99.90;;;;;;5030625;28;20095;-70
2021/05/31 03:08:34;;;;;;;6.13;2.35;;;11.90;99.90;;;;;;5031819;28;20444;-71
2021/05/31 03:11:00;;;;;;;5.82;3.15;;;12.00;99.90;;;;;;5030888;28;20025;-70
2021/05/31 03:13:26;;;;;;;5.18;2.25;;;12.00;99.90;;;;;;5031674;28;20037;-70
2021/05/31 03:15:53;;;;;;;4.32;2.35;;;11.90;99.90;;;;;;5032290;28;20076;-71
2021/05/31 03:18:20;;;;;;;3.70;2.17;;;11.90;99.90;;;;;;5031675;28;20064;-71
2021/05/31 03:20:46;;;;;;;7.10;2.33;;;12.00;99.90;;;;;;5031710;28;20025;-71
2021/05/31 03:23:11;;;;;;;4.03;2.22;;;12.00;99.90;;;;;;5030417;28;20504;-71
2021/05/31 03:25:38;;;;;;;4.57;2.65;;;11.80;99.90;;;;;;5031089;28;20385;-71
2021/05/31 03:28:05;;;;;;;5.30;2.33;;;11.70;99.90;;;;;;5017439;28;20045;-71
2021/05/31 03:30:31;;;;;;;5.03;2.17;;;11.70;99.90;;;;;;5033948;28;20052;-71
2021/05/31 03:32:57;;;;;;;4.80;2.30;;;11.70;99.90;;;;;;5034219;28;20474;-71
2021/05/31 03:35:24;;;;;;;4.22;2.40;;;11.70;99.90;;;;;;5035176;28;20025;-71
2021/05/31 03:37:50;;;;;;;4.93;2.30;;;11.80;99.90;;;;;;5033826;28;20120;-71
2021/05/31 03:40:21;;;;;;;5.75;2.60;;;11.80;99.90;;;;;;5035158;28;20506;-71
2021/05/31 03:42:54;;;;;;;7.22;2.72;;;11.80;99.90;;;;;;5035230;28;20032;-71
2021/05/31 03:45:21;;;;;;;4.13;2.13;;;11.80;99.90;;;;;;5033913;28;20029;-71
2021/05/31 03:47:47;;;;;;;5.00;2.10;;;11.70;99.90;;;;;;5033506;28;20030;-71
2021/05/31 03:50:13;;;;;;;5.97;2.33;;;11.60;99.90;;;;;;5040445;28;20067;-71
2021/05/31 03:52:39;;;;;;;4.28;2.22;;;11.60;99.90;;;;;;5053851;28;20028;-69
2021/05/31 03:55:07;;;;;;;5.40;2.40;;;11.60;99.90;;;;;;5054982;28;20029;-69
2021/05/31 03:57:36;;;;;;;5.82;2.17;;;11.60;99.90;;;;;;5051367;28;20043;-70
2021/05/31 04:00:08;;;;;;;6.38;2.63;;;11.60;99.90;;;;;;5030808;28;20043;-70
2021/05/31 04:02:37;;;;;;;6.78;2.70;;;11.50;99.90;;;;;;5034889;28;20030;-71
2021/05/31 04:05:03;;;;;;;4.47;2.20;;;11.60;99.90;;;;;;5034576;28;20760;-70
2021/05/31 04:12:57;;;;;;;5.57;2.38;;;11.50;99.90;;;;;;5034380;28;20041;-71
2021/05/31 04:15:23;;;;;;;3.88;2.17;;;11.50;99.90;;;;;;5033538;28;20074;-70
2021/05/31 04:17:49;;;;;;;4.70;2.47;;;11.60;99.90;;;;;;5033157;28;20478;-72
2021/05/31 04:20:15;;;;;;;5.10;2.45;;;11.80;99.90;;;;;;5026820;28;20038;-73
2021/05/31 04:22:41;;;;;;;4.70;2.25;;;11.80;99.90;;;;;;5014840;28;20502;-78
2021/05/31 04:25:08;;;;;;;4.70;2.20;;;11.70;99.90;;;;;;5030653;28;20033;-75
2021/05/31 04:27:34;;;;;;;7.93;2.58;;;11.60;99.90;;;;;;5029399;28;20406;-73
2021/05/31 04:30:00;;;;;;;6.50;2.42;;;11.40;99.90;;;;;;5014824;28;20034;-73
2021/05/31 04:32:25;;;;;;;5.22;2.53;;;11.60;99.90;;;;;;5014227;28;20042;-70
2021/05/31 04:34:51;;;;;;;5.30;2.45;;;11.80;99.90;;;;;;5029698;28;20034;-73
2021/05/31 04:37:17;;;;;;;4.30;2.50;;;12.00;99.90;;;;;;5014253;28;20478;-71
2021/05/31 04:39:43;;;;;;;3.97;2.38;;;12.10;99.90;;;;;;5012879;28;20478;-72
2021/05/31 04:42:09;;;;;;;5.05;2.17;;;12.20;99.90;;;;;;5014307;28;20129;-73
2021/05/31 04:44:36;;;;;;;3.88;2.28;;;12.10;99.90;;;;;;5014345;28;20679;-68
2021/05/31 04:47:03;;;;;;;3.92;2.05;;;12.10;99.90;;;;;;5029625;28;20041;-69
2021/05/31 04:49:29;;;;;;;6.03;2.72;;;12.20;99.90;;;;;;5029637;28;20108;-69
2021/05/31 04:51:54;;;;;;;37.08;8.18;;;12.20;99.90;;;;;;5033619;28;20525;-69
2021/05/31 04:54:20;;;;;;;3.67;2.45;;;12.30;99.90;;;;;;5032817;28;20041;-69
2021/05/31 04:56:46;;;;;;;5.88;2.30;;;12.30;99.90;;;;;;5033558;28;20056;-69
2021/05/31 04:59:13;;;;;;;6.28;2.63;;;12.30;99.90;;;;;;5033511;28;20033;-69
2021/05/31 05:01:40;;;;;;;8.93;2.70;;;12.20;99.90;;;;;;5033563;28;20104;-70
2021/05/31 05:04:06;;;;;;;8.27;2.92;;;12.20;99.90;;;;;;5033208;28;20397;-72
2021/05/31 05:06:34;;;;;;;6.80;2.42;;;12.10;99.90;;;;;;5032118;28;20473;-72
2021/05/31 05:09:00;;;;;;;6.43;2.67;;;12.20;99.90;;;;;;5033633;28;20120;-72
2021/05/31 05:11:26;;;;;;;9.55;2.58;;;12.30;99.90;;;;;;5032298;28;20033;-73
2021/05/31 05:13:52;;;;;;;3.53;2.13;;;12.40;99.90;;;;;;5033154;28;20041;-73
2021/05/31 05:16:20;;;;;;;4.20;2.60;;;12.50;99.90;;;;;;5033515;28;20025;-73
2021/05/31 05:18:49;;;;;;;5.93;2.60;;;12.50;99.90;;;;;;5031903;28;20079;-73
2021/05/31 05:21:16;;;;;;;7.03;2.63;;;12.60;99.90;;;;;;5047813;28;20036;-73
2021/05/31 05:23:47;;;;;;;5.72;2.47;;;12.70;99.90;;;;;;5051737;28;20056;-73
2021/05/31 05:26:14;;;;;;;3.90;2.60;;;12.80;99.90;;;;;;5051927;28;20033;-73
2021/05/31 05:28:40;;;;;;;7.63;2.50;;;12.80;99.90;;;;;;5052469;28;20435;-73
2021/05/31 05:31:09;;;;;;;13.77;6.82;;;12.90;99.90;;;;;;5053111;28;20033;-73
2021/05/31 05:33:37;;;;;;;6.72;2.45;;;13.10;99.90;;;;;;5052103;28;20060;-73
2021/05/31 05:49:12;;;;;;;6.80;2.22;;;13.70;99.90;;;;;;5032827;28;20045;-73
2021/05/31 05:51:38;;;;;;;5.88;2.00;;;13.80;99.90;;;;;;5031502;28;20042;-73
2021/05/31 05:54:04;;;;;;;8.40;2.30;;;13.90;99.90;;;;;;5032260;28;20124;-76
2021/05/31 05:56:32;;;;;;;3.55;1.90;;;13.90;99.90;;;;;;5032444;28;20108;-68
2021/05/31 05:58:58;;;;;;;7.57;2.50;;;14.10;99.00;;;;;;5032480;28;20029;-70
2021/05/31 06:01:25;;;;;;;4.55;2.00;;;14.30;98.60;;;;;;5031585;28;20036;-71
2021/05/31 06:03:52;;;;;;;5.60;1.90;;;14.40;98.80;;;;;;5032503;28;20137;-72
2021/05/31 06:06:21;;;;;;;5.05;1.75;;;14.50;98.60;;;;;;5047720;28;20087;-71
2021/05/31 06:08:47;;;;;;;6.05;1.77;;;14.60;97.30;;;;;;5032094;28;20420;-72
2021/05/31 06:11:14;;;;;;;3.15;1.70;;;14.70;97.20;;;;;;5031998;28;20124;-72
2021/05/31 06:13:42;;;;;;;4.70;1.73;;;14.80;96.90;;;;;;5032193;28;20041;-70
2021/05/31 06:16:10;;;;;;;3.00;1.73;;;14.90;96.20;;;;;;5031226;28;20030;-73
2021/05/31 06:18:37;;;;;;;5.60;1.92;;;15.00;95.70;;;;;;5046996;28;20064;-71
2021/05/31 06:21:03;;;;;;;3.10;1.58;;;15.10;95.30;;;;;;5045295;28;20037;-71
2021/05/31 06:23:29;;;;;;;5.80;1.52;;;15.20;95.30;;;;;;5052319;28;20033;-72
2021/05/31 06:25:55;;;;;;;2.63;1.48;;;15.40;94.60;;;;;;5051907;28;20036;-71
2021/05/31 06:28:21;;;;;;;2.72;1.65;;;15.60;94.30;;;;;;5051727;28;20106;-72
2021/05/31 06:30:47;;;;;;;2.90;1.50;;;15.60;94.20;;;;;;5050886;28;20037;-72
2021/05/31 06:33:14;;;;;;;5.25;1.95;;;15.60;93.70;;;;;;5034262;28;20066;-72
2021/05/31 06:35:40;;;;;;;2.50;1.25;;;15.70;93.80;;;;;;5067143;28;20127;-72
2021/05/31 06:38:06;;;;;;;3.42;1.40;;;15.80;92.90;;;;;;5044228;28;20389;-74
2021/05/31 06:40:32;;;;;;;2.75;1.55;;;15.90;92.50;;;;;;5030594;28;20508;-75
2021/05/31 06:42:59;;;;;;;7.07;1.90;;;16.00;92.40;;;;;;5032195;28;20060;-74
2021/05/31 06:45:28;;;;;;;3.30;1.45;;;16.10;92.90;;;;;;5032335;28;20037;-75
2021/05/31 06:47:57;;;;;;;6.03;1.50;;;15.90;91.70;;;;;;5031997;28;20033;-75
2021/05/31 06:50:25;;;;;;;4.93;1.77;;;16.10;91.90;;;;;;5039673;28;20025;-75
2021/05/31 06:52:51;;;;;;;4.53;1.65;;;16.10;91.80;;;;;;5051997;28;20036;-75
2021/05/31 06:55:20;;;;;;;2.70;1.83;;;16.30;91.80;;;;;;5050746;28;20033;-75
2021/05/31 06:57:50;;;;;;;4.28;2.08;;;16.50;91.10;;;;;;5051457;28;20476;-74
2021/05/31 07:00:19;;;;;;;3.40;2.17;;;16.50;90.90;;;;;;5051980;28;20554;-74
2021/05/31 07:02:45;;;;;;;2.75;1.55;;;16.60;90.30;;;;;;5055707;28;20299;-73
2021/05/31 07:05:11;;;;;;;4.15;1.25;;;16.70;90.60;;;;;;5055534;28;20100;-73
2021/05/31 07:07:38;;;;;;;4.18;1.48;;;16.80;89.00;;;;;;5055671;28;20028;-73
2021/05/31 07:10:09;;;;;;;3.45;1.55;;;16.80;87.40;;;;;;5042440;28;20028;-73
2021/05/31 07:12:36;;;;;;;5.93;1.63;;;16.80;86.50;;;;;;5018074;28;20041;-73
2021/05/31 07:15:04;;;;;;;2.80;1.30;;;16.90;86.50;;;;;;5035492;28;20133;-73
2021/05/31 07:17:34;;;;;;;4.40;1.83;;;17.00;87.40;;;;;;5034061;28;20052;-73
2021/05/31 07:20:02;;;;;;;7.93;1.58;;;17.10;87.50;;;;;;5039990;28;20060;-73
2021/05/31 07:22:28;;;;;;;4.72;1.52;;;17.30;86.60;;;;;;5055529;28;20029;-73
2021/05/31 07:24:54;;;;;;;2.28;1.40;;;17.20;87.30;;;;;;5055332;28;20473;-74
2021/05/31 07:27:21;;;;;;;3.03;1.30;;;17.20;87.30;;;;;;5055066;28;20347;-74
2021/05/31 07:29:47;;;;;;;5.32;1.40;;;17.20;87.20;;;;;;5055313;28;20045;-73
2021/05/31 07:32:14;;;;;;;3.35;1.30;;;17.30;86.40;;;;;;5054211;28;20091;-73
2021/05/31 07:34:40;;;;;;;5.45;1.20;;;17.30;83.60;;;;;;5055128;28;20072;-74
2021/05/31 07:37:07;;;;;;;2.72;1.40;;;17.40;84.40;;;;;;5048049;28;20033;-74
2021/05/31 07:39:33;;;;;;;3.85;1.35;;;17.60;83.80;;;;;;5033867;28;20079;-73
2021/05/31 07:41:59;;;;;;;3.20;1.35;;;17.60;84.00;;;;;;5034770;28;20033;-71
2021/05/31 07:44:25;;;;;;;4.78;1.52;;;17.50;82.20;;;;;;5035206;28;20120;-73
2021/05/31 07:46:51;;;;;;;3.67;1.55;;;17.60;81.50;;;;;;5033504;28;20433;-73
2021/05/31 07:49:17;;;;;;;3.35;1.70;;;17.60;82.20;;;;;;5032644;28;20033;-74
2021/05/31 07:51:45;;;;;;;4.35;1.35;;;17.70;82.20;;;;;;5053151;28;20052;-72
2021/05/31 07:54:13;;;;;;;3.92;1.20;;;17.90;81.30;;;;;;5040040;28;20082;-73
2021/05/31 07:56:39;;;;;;;2.38;1.30;;;18.00;79.40;;;;;;5033558;28;20030;-73
2021/05/31 07:59:05;;;;;;;3.03;1.70;;;18.10;78.80;;;;;;5016966;28;20026;-73
2021/05/31 08:01:34;;;;;;;4.32;1.50;;;18.30;77.00;;;;;;5034801;28;20029;-72
2021/05/31 08:04:00;;;;;;;3.78;1.20;;;18.50;74.50;;;;;;5033345;28;20048;-73
2021/05/31 08:06:26;;;;;;;4.85;1.33;;;18.60;73.40;;;;;;5033477;28;20042;-72
2021/05/31 08:08:55;;;;;;;3.90;1.65;;;18.50;71.70;;;;;;5034471;28;20108;-73
2021/05/31 08:11:21;;;;;;;4.18;1.42;;;18.60;72.00;;;;;;5033088;28;20056;-73
2021/05/31 08:13:47;;;;;;;2.55;1.23;;;18.50;72.70;;;;;;5033009;28;20481;-72
2021/05/31 08:16:16;;;;;;;2.72;1.17;;;18.50;70.80;;;;;;5033396;28;20032;-73
2021/05/31 08:18:43;;;;;;;4.05;1.63;;;18.60;71.20;;;;;;5034430;28;20067;-73
2021/05/31 08:21:09;;;;;;;3.85;1.08;;;18.70;71.80;;;;;;5046894;28;20124;-73
2021/05/31 08:23:35;;;;;;;2.75;1.38;;;18.90;71.70;;;;;;5054195;28;20068;-74
2021/05/31 08:26:01;;;;;;;7.60;3.05;;;18.90;70.20;;;;;;5054164;28;20072;-73
2021/05/31 08:28:28;;;;;;;3.55;1.20;;;18.90;69.80;;;;;;5052443;28;20477;-74
2021/05/31 08:30:54;;;;;;;2.60;1.00;;;18.90;69.30;;;;;;5068625;28;20036;-73
2021/05/31 08:33:19;;;;;;;2.20;1.15;;;18.90;68.60;;;;;;5053746;28;20025;-73
2021/05/31 08:35:47;;;;;;;3.92;1.48;;;18.80;68.30;;;;;;5069202;28;20090;-73
2021/05/31 08:38:13;;;;;;;3.75;1.45;;;19.00;70.00;;;;;;5053976;28;20116;-73
2021/05/31 08:40:39;;;;;;;2.90;1.33;;;19.20;68.90;;;;;;5052869;28;20070;-73
2021/05/31 08:43:06;;;;;;;3.13;1.30;;;19.30;67.70;;;;;;5053831;28;20033;-73
2021/05/31 08:45:32;;;;;;;3.42;1.45;;;19.40;67.30;;;;;;5036015;28;20029;-73
2021/05/31 08:47:59;;;;;;;4.05;1.50;;;19.40;65.30;;;;;;5053530;28;20480;-73
2021/05/31 08:50:33;;;;;;;2.65;1.60;;;19.60;66.00;;;;;;5044566;28;20109;-73
2021/05/31 08:52:59;;;;;;;2.22;1.20;;;19.70;66.20;;;;;;5033739;28;20068;-73
2021/05/31 08:55:29;;;;;;;3.40;1.38;;;19.60;65.00;;;;;;5032334;28;20025;-73
2021/05/31 08:57:56;;;;;;;2.53;1.50;;;19.60;65.10;;;;;;5033447;28;20390;-73
2021/05/31 09:00:29;;;;;;;2.70;1.20;;;19.60;65.80;;;;;;5033541;28;20030;-73
2021/05/31 09:03:00;;;;;;;1.95;1.27;;;19.80;64.30;;;;;;5032223;28;20030;-73
2021/05/31 09:05:39;;;;;;;12.07;5.38;;;19.70;64.70;;;;;;5033629;28;20068;-74
2021/05/31 09:08:14;;;;;;;4.65;2.30;;;19.80;65.80;;;;;;5033266;28;20385;-74
2021/05/31 09:10:46;;;;;;;2.90;1.45;;;20.00;64.20;;;;;;5033301;28;20385;-73
2021/05/31 09:13:31;;;;;;;3.13;1.50;;;20.10;65.10;;;;;;5033167;28;20033;-73
2021/05/31 09:16:13;;;;;;;2.50;1.40;;;20.20;63.20;;;;;;5016674;28;20045;-71
2021/05/31 09:19:02;;;;;;;2.85;1.30;;;20.10;62.60;;;;;;5031994;28;20125;-71
2021/05/31 09:21:38;;;;;;;2.28;1.20;;;20.10;61.90;;;;;;5032042;28;20024;-71
2021/05/31 09:24:07;;;;;;;4.57;1.58;;;20.00;61.60;;;;;;5051277;28;20029;-71
2021/05/31 09:26:49;;;;;;;3.78;1.55;;;20.10;62.70;;;;;;5047066;28;20041;-71
2021/05/31 09:29:18;;;;;;;2.40;1.20;;;20.10;62.50;;;;;;5015254;28;20045;-71
2021/05/31 09:31:44;;;;;;;5.10;1.33;;;20.30;63.40;;;;;;5032792;28;20048;-71
2021/05/31 09:34:15;;;;;;;3.38;1.13;;;20.50;63.10;;;;;;5033076;28;20033;-71
2021/05/31 09:37:01;;;;;;;4.32;1.63;;;20.50;62.70;;;;;;5031424;28;20045;-71
2021/05/31 09:39:38;;;;;;;1.95;1.30;;;20.50;63.50;;;;;;5033025;28;20497;-71
2021/05/31 09:42:14;;;;;;;3.28;1.63;;;20.70;62.20;;;;;;5031692;28;20045;-71
2021/05/31 09:44:43;;;;;;;4.65;3.08;;;20.80;60.30;;;;;;5048313;28;20040;-71
2021/05/31 09:47:10;;;;;;;2.03;1.23;;;20.40;60.30;;;;;;5052327;28;20056;-71
2021/05/31 09:49:37;;;;;;;3.33;1.27;;;20.40;60.90;;;;;;5050058;28;20033;-71
2021/05/31 09:52:04;;;;;;;2.13;1.30;;;20.60;62.00;;;;;;5031193;28;20029;-71
2021/05/31 09:54:56;;;;;;;2.05;1.20;;;20.60;61.70;;;;;;5032462;28;20070;-71
2021/05/31 09:57:28;;;;;;;1.40;0.90;;;20.80;60.40;;;;;;5032298;28;20052;-71
2021/05/31 10:00:16;;;;;;;6.18;1.73;;;20.30;60.00;;;;;;5031508;28;20025;-71
2021/05/31 10:02:55;;;;;;;1.80;1.10;;;20.30;61.90;;;;;;5032518;28;20389;-71
2021/05/31 10:08:39;;;;;;;2.15;1.20;;;21.10;62.10;;;;;;5032019;28;20539;-71
2021/05/31 10:10:48;;;;;;;4.13;1.48;;;21.30;60.40;;;;;;5031091;28;20033;-70
2021/05/31 10:13:14;;;;;;;2.78;1.30;;;21.40;58.20;;;;;;5030912;28;20079;-70
2021/05/31 10:15:41;;;;;;;2.55;1.17;;;21.50;58.40;;;;;;5032538;28;20040;-70
2021/05/31 10:18:09;;;;;;;2.70;1.23;;;21.50;57.40;;;;;;5032223;28;20044;-70
2021/05/31 10:20:37;;;;;;;4.30;1.35;;;21.60;58.10;;;;;;5040419;28;20477;-74
2021/05/31 10:23:06;;;;;;;4.13;1.55;;;21.90;56.10;;;;;;5051902;28;20032;-68
2021/05/31 10:25:34;;;;;;;3.15;1.35;;;21.50;57.00;;;;;;5052191;28;20036;-69
2021/05/31 10:28:07;;;;;;;2.45;1.23;;;21.70;57.20;;;;;;5050115;28;20431;-65
2021/05/31 10:30:51;;;;;;;3.67;1.40;;;21.70;56.50;;;;;;5050359;28;20465;-75
2021/05/31 10:33:23;;;;;;;4.57;1.38;;;21.90;55.70;;;;;;5051695;28;20044;-70
2021/05/31 10:35:51;;;;;;;3.45;1.25;;;21.90;55.50;;;;;;5055707;28;20029;-68
2021/05/31 10:38:23;;;;;;;3.13;1.50;;;21.90;54.50;;;;;;5057551;28;20063;-67
2021/05/31 10:40:53;;;;;;;2.30;1.15;;;22.00;55.90;;;;;;5008615;28;20095;-66
2021/05/31 10:43:24;;;;;;;4.40;1.70;;;22.00;56.50;;;;;;5057287;28;20055;-68
2021/05/31 10:46:03;;;;;;;2.15;1.10;;;21.90;57.30;;;;;;5057502;28;20033;-70
2021/05/31 10:48:31;;;;;;;2.75;1.33;;;22.20;56.30;;;;;;5058533;28;20054;-69
2021/05/31 10:51:00;;;;;;;2.47;1.10;;;22.10;56.30;;;;;;5044927;28;20374;-68
2021/05/31 10:53:32;;;;;;;6.28;1.50;;;22.50;56.50;;;;;;5037161;28;20037;-70
2021/05/31 10:56:02;;;;;;;2.90;1.30;;;22.80;55.30;;;;;;5037270;28;20416;-71
2021/05/31 10:58:45;;;;;;;2.05;1.02;;;22.60;54.70;;;;;;5038316;28;20393;-70
2021/05/31 11:01:20;;;;;;;3.20;1.42;;;22.60;54.30;;;;;;5038504;28;20049;-69
2021/05/31 11:04:00;;;;;;;6.10;1.50;;;22.60;55.50;;;;;;5037204;28;20091;-68
2021/05/31 11:06:29;;;;;;;4.80;2.07;;;22.80;53.70;;;;;;5037095;28;20048;-69
2021/05/31 11:09:19;;;;;;;5.05;1.30;;;23.10;53.50;;;;;;5020642;28;20033;-69
2021/05/31 11:11:56;;;;;;;5.82;1.33;;;22.70;54.00;;;;;;5037001;28;20128;-68
2021/05/31 11:14:45;;;;;;;4.45;1.35;;;22.90;53.60;;;;;;5038216;28;20437;-66
2021/05/31 11:17:17;;;;;;;3.17;1.60;;;22.80;53.20;;;;;;5036851;28;20037;-67
2021/05/31 11:19:51;;;;;;;4.57;1.40;;;22.90;53.80;;;;;;5039347;28;20120;-66
2021/05/31 11:22:30;;;;;;;2.15;1.35;;;23.20;52.80;;;;;;5057059;28;20036;-67
2021/05/31 11:25:09;;;;;;;2.78;1.40;;;22.70;53.30;;;;;;5056774;28;20033;-67
2021/05/31 11:27:42;;;;;;;3.25;1.20;;;23.00;54.90;;;;;;5056741;28;20063;-67
2021/05/31 11:30:16;;;;;;;3.55;1.52;;;23.30;53.70;;;;;;5058004;28;20422;-67
2021/05/31 11:32:42;;;;;;;4.32;1.70;;;23.50;54.10;;;;;;5073628;28;20028;-67
2021/05/31 11:35:15;;;;;;;1.92;1.30;;;23.90;53.80;;;;;;5058245;28;20465;-67
2021/05/31 11:37:42;;;;;;;2.08;1.02;;;23.80;53.00;;;;;;5073623;28;20033;-66
2021/05/31 11:40:42;;;;;;;3.53;1.38;;;23.50;52.70;;;;;;5061387;28;20105;-67
2021/05/31 11:43:13;;;;;;;3.60;1.33;;;23.30;52.30;;;;;;5057933;28;20493;-67
2021/05/31 11:45:43;;;;;;;2.92;1.17;;;23.10;52.90;;;;;;5042685;28;20120;-67
2021/05/31 11:48:16;;;;;;;3.85;1.20;;;23.60;52.90;;;;;;5015729;28;20040;-67
2021/05/31 11:50:45;;;;;;;2.67;1.40;;;24.10;53.20;;;;;;5030961;28;20037;-67
2021/05/31 11:53:16;;;;;;;2.58;1.27;;;24.40;51.50;;;;;;5032088;28;20033;-67
2021/05/31 11:55:43;;;;;;;;;;;24.00;52.50;;;;;;5047267;28;20443;-66
2021/05/31 11:58:11;;;;;;;3.55;1.40;;;24.50;51.50;;;;;;5033413;28;19913;-67
2021/05/31 12:00:42;;;;;;;2.13;1.20;;;24.40;53.00;;;;;;5032540;28;20087;-67
2021/05/31 12:03:19;;;;;;;3.30;1.38;;;24.30;52.50;;;;;;5033415;28;20041;-66
2021/05/31 12:05:46;;;;;;;2.53;1.50;;;23.80;51.90;;;;;;5046942;28;20079;-67
2021/05/31 12:08:15;;;;;;;3.45;1.35;;;23.90;51.80;;;;;;5033195;28;20026;-67
2021/05/31 12:10:45;;;;;;;3.05;1.40;;;23.50;52.10;;;;;;5029831;28;20128;-65
2021/05/31 12:13:12;;;;;;;2.47;1.30;;;23.50;53.10;;;;;;5032328;28;20029;-67
2021/05/31 12:15:39;;;;;;;3.53;1.52;;;23.90;52.00;;;;;;5032449;28;20168;-67
2021/05/31 12:18:25;;;;;;;2.92;1.60;;;23.60;52.60;;;;;;5033188;28;20380;-66
2021/05/31 12:21:01;;;;;;;3.13;1.45;;;23.50;55.00;;;;;;5032037;28;20029;-67
2021/05/31 12:23:27;;;;;;;3.10;1.92;;;23.90;52.60;;;;;;5031663;28;20041;-67
2021/05/31 12:26:08;;;;;;;4.75;1.75;;;23.60;53.90;;;;;;5032167;28;20029;-67
2021/05/31 12:28:36;;;;;;;10.77;6.13;;;23.40;52.50;;;;;;5031440;28;20065;-66
2021/05/31 12:31:02;;;;;;;2.33;1.30;;;23.50;52.90;;;;;;5031941;28;20033;-68
2021/05/31 12:33:28;;;;;;;2.58;1.17;;;23.40;52.00;;;;;;5033650;28;20042;-67
2021/05/31 12:35:55;;;;;;;3.50;1.40;;;23.80;51.70;;;;;;5016571;28;20112;-67
2021/05/31 12:38:23;;;;;;;3.80;1.42;;;24.10;54.10;;;;;;5032563;28;20160;-67
2021/05/31 12:40:51;;;;;;;3.63;1.65;;;24.20;52.20;;;;;;5033973;28;20034;-66
2021/05/31 12:43:17;;;;;;;7.38;1.42;;;24.10;52.10;;;;;;5016158;28;20029;-67
2021/05/31 12:45:48;;;;;;;2.60;1.23;;;24.20;49.80;;;;;;5032451;28;20535;-67
2021/05/31 12:48:21;;;;;;;2.45;1.00;;;24.60;51.40;;;;;;5032380;28;20516;-67
2021/05/31 12:50:56;;;;;;;3.83;1.55;;;25.10;49.70;;;;;;5043638;28;20064;-67
2021/05/31 12:53:27;;;;;;;2.22;1.40;;;24.90;50.70;;;;;;5052437;28;20044;-66
2021/05/31 12:56:00;;;;;;;2.58;1.20;;;25.10;50.50;;;;;;5052531;28;20033;-66
2021/05/31 12:58:27;;;;;;;4.38;1.50;;;24.90;50.70;;;;;;5035139;28;20041;-68
2021/05/31 13:00:53;;;;;;;3.42;1.38;;;25.00;50.70;;;;;;5053774;28;20480;-66
2021/05/31 13:03:20;;;;;;;1.55;0.93;;;24.80;48.20;;;;;;5053077;28;20397;-66
2021/05/31 13:05:49;;;;;;;2.22;1.02;;;25.20;48.80;;;;;;5035385;28;20038;-67
2021/05/31 13:08:16;;;;;;;2.70;1.10;;;25.20;48.10;;;;;;5051255;28;20694;-67
2021/05/31 13:10:55;;;;;;;2.60;1.15;;;25.20;50.70;;;;;;5035346;28;20029;-66
2021/05/31 13:13:36;;;;;;;2.67;1.20;;;25.40;49.70;;;;;;5051850;28;20029;-66
2021/05/31 13:16:08;;;;;;;3.20;1.30;;;24.60;49.70;;;;;;5052122;28;20089;-66
2021/05/31 13:18:43;;;;;;;2.95;1.20;;;24.90;49.10;;;;;;5068544;28;20057;-67
2021/05/31 13:21:16;;;;;;;2.63;1.30;;;25.10;49.20;;;;;;5038855;28;20029;-67